Time;durP1;ratioP1;P1;durP2;ratioP2;P2;SDS_P1;SDS_P2;PMS_P1;PMS_P2;Temp;Humidity;BMP_temperature;BMP_pressure;BME280_temperature;BME280_humidity;BME280_pressure;Samples;Min_cycle;Max_cycle;Signal;HPM_P1;HPM_P2
2023/04/26 00:00:24;;;;;;;8.00;2.20;;;;;;;;;;5048562;28;20041;-68
2023/04/26 00:02:52;;;;;;;3.25;1.70;;;;;;;;;;5046892;28;20152;-68
2023/04/26 00:05:18;;;;;;;4.78;1.83;;;;;;;;;;5037665;28;20054;-68
2023/04/26 00:07:44;;;;;;;5.85;2.13;;;;;;;;;;5034728;28;20053;-68
2023/04/26 00:10:11;;;;;;;4.90;1.98;;;;;;;;;;5065493;28;20091;-69
2023/04/26 00:12:39;;;;;;;4.93;1.75;;;;;;;;;;5067399;28;20103;-68
2023/04/26 00:15:10;;;;;;;3.60;1.60;;;;;;;;;;5052199;28;20531;-68
2023/04/26 00:17:36;;;;;;;5.55;1.88;;;;;;;;;;5045509;28;20080;-68
2023/04/26 00:20:05;;;;;;;8.57;1.88;;;;;;;;;;5048425;28;20072;-68
2023/04/26 00:22:31;;;;;;;7.78;2.15;;;;;;;;;;5048025;28;20048;-68
2023/04/26 00:25:00;;;;;;;4.53;1.67;;;;;;;;;;5050770;28;20118;-68
2023/04/26 00:27:26;;;;;;;5.38;1.60;;;;;;;;;;5039012;28;21473;-69
2023/04/26 00:29:53;;;;;;;5.55;1.80;;;;;;;;;;5053577;28;20146;-68
2023/04/26 00:32:21;;;;;;;6.50;2.00;;;;;;;;;;5047333;28;20113;-68
2023/04/26 00:34:47;;;;;;;4.90;1.87;;;;;;;;;;5051691;28;20057;-68
2023/04/26 00:37:13;;;;;;;5.72;1.85;;;;;;;;;;5040093;28;20063;-67
2023/04/26 00:39:40;;;;;;;3.70;1.83;;;;;;;;;;5044532;28;20187;-67
2023/04/26 00:42:06;;;;;;;5.13;1.92;;;;;;;;;;5049051;28;20063;-67
2023/04/26 00:44:33;;;;;;;8.20;2.20;;;;;;;;;;5048636;28;20141;-67
2023/04/26 00:46:59;;;;;;;3.88;1.92;;;;;;;;;;5054085;28;20049;-68
2023/04/26 00:49:27;;;;;;;6.10;1.90;;;;;;;;;;5020107;28;20052;-66
2023/04/26 00:51:54;;;;;;;4.50;2.03;;;;;;;;;;5055473;28;20178;-68
2023/04/26 00:54:21;;;;;;;4.63;1.70;;;;;;;;;;5040322;28;20053;-66
2023/04/26 00:56:50;;;;;;;4.90;1.77;;;;;;;;;;5036975;28;20044;-67
2023/04/26 00:59:17;;;;;;;4.85;1.80;;;;;;;;;;5020597;28;20049;-67
2023/04/26 01:01:44;;;;;;;4.28;1.70;;;;;;;;;;5016900;28;20131;-67
2023/04/26 01:04:11;;;;;;;4.35;1.73;;;;;;;;;;5019071;28;20045;-67
2023/04/26 01:06:40;;;;;;;4.18;2.00;;;;;;;;;;5019004;28;20183;-67
2023/04/26 01:09:08;;;;;;;5.10;1.92;;;;;;;;;;5024888;28;20049;-68
2023/04/26 01:11:35;;;;;;;3.97;1.60;;;;;;;;;;5036137;28;20127;-67
2023/04/26 01:14:02;;;;;;;5.00;1.80;;;;;;;;;;5031998;28;20574;-68
2023/04/26 01:16:29;;;;;;;3.53;1.73;;;;;;;;;;5037464;28;20061;-67
2023/04/26 01:18:56;;;;;;;5.65;2.00;;;;;;;;;;5036602;28;20089;-67
2023/04/26 01:21:23;;;;;;;5.65;1.80;;;;;;;;;;5029345;28;20595;-67
2023/04/26 01:23:52;;;;;;;6.57;1.95;;;;;;;;;;5017170;28;20072;-66
2023/04/26 01:26:19;;;;;;;5.38;1.63;;;;;;;;;;5031550;28;20061;-67
2023/04/26 01:28:45;;;;;;;3.33;1.65;;;;;;;;;;5033325;28;20125;-66
2023/04/26 01:31:12;;;;;;;3.20;1.75;;;;;;;;;;5031517;28;20095;-67
2023/04/26 01:33:38;;;;;;;5.10;1.80;;;;;;;;;;5036037;28;20172;-67
2023/04/26 01:36:08;;;;;;;6.00;2.30;;;;;;;;;;5033037;28;20061;-67
2023/04/26 01:38:34;;;;;;;4.55;1.75;;;;;;;;;;5025535;28;20063;-67
2023/04/26 01:41:05;;;;;;;4.63;1.80;;;;;;;;;;5014815;28;20053;-67
2023/04/26 01:43:31;;;;;;;5.00;1.85;;;;;;;;;;5011802;28;20120;-66
2023/04/26 01:45:57;;;;;;;6.15;1.90;;;;;;;;;;5012129;28;20169;-67
2023/04/26 01:48:24;;;;;;;3.83;1.73;;;;;;;;;;5005191;28;20137;-66
2023/04/26 01:50:51;;;;;;;5.22;2.03;;;;;;;;;;5018173;28;20072;-66
2023/04/26 01:53:18;;;;;;;3.63;1.80;;;;;;;;;;5029513;28;20152;-67
2023/04/26 01:55:44;;;;;;;5.50;1.88;;;;;;;;;;5033838;28;20136;-66
2023/04/26 01:58:12;;;;;;;4.63;1.85;;;;;;;;;;5033076;28;20056;-66
2023/04/26 02:00:39;;;;;;;4.30;1.70;;;;;;;;;;5030791;28;20103;-66
2023/04/26 02:03:05;;;;;;;4.18;1.85;;;;;;;;;;5015839;28;20706;-66
2023/04/26 02:05:31;;;;;;;4.82;1.83;;;;;;;;;;5019725;28;20060;-66
2023/04/26 02:07:58;;;;;;;6.25;2.13;;;;;;;;;;5018773;28;20074;-67
2023/04/26 02:10:25;;;;;;;4.20;1.77;;;;;;;;;;5034940;28;20053;-66
2023/04/26 02:12:51;;;;;;;8.60;2.20;;;;;;;;;;5025653;28;20057;-66
2023/04/26 02:15:20;;;;;;;6.97;2.10;;;;;;;;;;5034388;28;20052;-67
2023/04/26 02:17:48;;;;;;;4.18;1.77;;;;;;;;;;5034529;28;20053;-66
2023/04/26 02:20:15;;;;;;;6.70;1.90;;;;;;;;;;5036266;28;20053;-66
2023/04/26 02:22:44;;;;;;;4.55;1.75;;;;;;;;;;5026447;28;20060;-66
2023/04/26 02:25:11;;;;;;;;;;;;;;;;;;5035227;28;20064;-67
2023/04/26 02:27:37;;;;;;;5.72;1.80;;;;;;;;;;5033581;28;19925;-67
2023/04/26 02:30:04;;;;;;;5.85;2.03;;;;;;;;;;5037523;28;20052;-66
2023/04/26 02:32:32;;;;;;;5.22;1.77;;;;;;;;;;5030078;28;20128;-67
2023/04/26 02:34:59;;;;;;;6.88;1.90;;;;;;;;;;5008177;28;20107;-66
2023/04/26 02:37:26;;;;;;;5.20;2.10;;;;;;;;;;5016873;28;20057;-65
2023/04/26 02:39:53;;;;;;;6.22;2.15;;;;;;;;;;5053100;28;20057;-65
2023/04/26 02:42:19;;;;;;;5.32;1.77;;;;;;;;;;5056598;28;20056;-66
2023/04/26 02:44:45;;;;;;;3.88;1.77;;;;;;;;;;5029938;28;20056;-66
2023/04/26 02:47:12;;;;;;;5.75;2.00;;;;;;;;;;5047467;28;20056;-67
2023/04/26 02:49:40;;;;;;;4.60;1.77;;;;;;;;;;5033779;28;20059;-66
2023/04/26 02:52:06;;;;;;;6.93;2.03;;;;;;;;;;5035136;28;20151;-67
2023/04/26 02:54:32;;;;;;;5.13;1.80;;;;;;;;;;4989215;28;20108;-67
2023/04/26 02:56:59;;;;;;;4.95;1.90;;;;;;;;;;5046584;28;20053;-66
2023/04/26 02:59:26;;;;;;;7.68;2.28;;;;;;;;;;5038521;28;20083;-66
2023/04/26 03:01:54;;;;;;;4.72;1.90;;;;;;;;;;5034534;28;20063;-66
2023/04/26 03:04:20;;;;;;;5.70;1.80;;;;;;;;;;5028487;28;20108;-66
2023/04/26 03:06:48;;;;;;;4.10;1.90;;;;;;;;;;5046789;28;20366;-66
2023/04/26 03:09:15;;;;;;;4.13;1.63;;;;;;;;;;5044631;28;20081;-67
2023/04/26 03:11:41;;;;;;;6.05;2.33;;;;;;;;;;5038010;28;20060;-66
2023/04/26 03:14:07;;;;;;;7.63;2.03;;;;;;;;;;5042918;28;20123;-65
2023/04/26 03:16:40;;;;;;;5.82;2.20;;;;;;;;;;5035540;28;20065;-66
2023/04/26 03:19:08;;;;;;;4.40;1.88;;;;;;;;;;5031981;28;20053;-66
2023/04/26 03:21:34;;;;;;;5.45;2.30;;;;;;;;;;5036510;28;20299;-67
2023/04/26 03:24:02;;;;;;;6.97;1.92;;;;;;;;;;5034500;28;20045;-66
2023/04/26 03:26:29;;;;;;;6.07;1.95;;;;;;;;;;5038483;28;20048;-67
2023/04/26 03:28:56;;;;;;;7.97;2.22;;;;;;;;;;5051578;28;20178;-66
2023/04/26 03:31:23;;;;;;;5.50;1.75;;;;;;;;;;5036427;28;20057;-66
2023/04/26 03:33:50;;;;;;;5.07;2.22;;;;;;;;;;5035026;28;20157;-67
2023/04/26 03:36:17;;;;;;;6.05;2.28;;;;;;;;;;5029633;28;20118;-65
2023/04/26 03:38:43;;;;;;;7.32;2.63;;;;;;;;;;5045085;28;20061;-67
2023/04/26 03:41:11;;;;;;;5.65;2.05;;;;;;;;;;5068657;28;20059;-65
2023/04/26 03:43:37;;;;;;;4.70;2.00;;;;;;;;;;5058592;28;20043;-66
2023/04/26 03:46:04;;;;;;;8.05;2.47;;;;;;;;;;5057418;28;20079;-66
2023/04/26 03:48:31;;;;;;;5.00;2.20;;;;;;;;;;5072456;28;20052;-67
2023/04/26 03:50:57;;;;;;;4.60;2.00;;;;;;;;;;5067170;28;20048;-66
2023/04/26 03:53:23;;;;;;;6.75;2.63;;;;;;;;;;5051210;28;20066;-68
2023/04/26 03:55:50;;;;;;;5.63;2.33;;;;;;;;;;5069412;28;20060;-66
2023/04/26 03:58:18;;;;;;;5.10;2.17;;;;;;;;;;5075573;28;20064;-67
2023/04/26 04:00:45;;;;;;;5.20;2.20;;;;;;;;;;5064890;28;20048;-67
2023/04/26 04:03:12;;;;;;;7.22;2.33;;;;;;;;;;5057266;28;20138;-66
2023/04/26 04:05:39;;;;;;;6.43;2.17;;;;;;;;;;5018771;28;20272;-67
2023/04/26 04:08:05;;;;;;;6.38;2.50;;;;;;;;;;5058756;28;20058;-67
2023/04/26 04:10:32;;;;;;;10.27;2.70;;;;;;;;;;5077991;28;20060;-67
2023/04/26 04:12:58;;;;;;;9.45;2.72;;;;;;;;;;5069722;28;20047;-67
2023/04/26 04:15:31;;;;;;;5.25;2.17;;;;;;;;;;5062706;28;20052;-66
2023/04/26 04:17:59;;;;;;;7.85;2.83;;;;;;;;;;5057400;28;20052;-70
2023/04/26 04:20:25;;;;;;;9.30;2.50;;;;;;;;;;5075535;28;20086;-69
2023/04/26 04:22:51;;;;;;;8.68;2.67;;;;;;;;;;5050683;28;20101;-69
2023/04/26 04:25:20;;;;;;;6.55;2.30;;;;;;;;;;5036891;28;20066;-69
2023/04/26 04:27:46;;;;;;;7.60;2.60;;;;;;;;;;5076737;28;20131;-69
2023/04/26 04:30:13;;;;;;;8.93;2.83;;;;;;;;;;5060407;28;20048;-68
2023/04/26 04:32:43;;;;;;;10.80;2.95;;;;;;;;;;5069730;28;20056;-68
2023/04/26 04:35:10;;;;;;;6.35;2.67;;;;;;;;;;5066569;28;20075;-68
2023/04/26 04:37:42;;;;;;;6.30;2.63;;;;;;;;;;5076528;28;20063;-69
2023/04/26 04:40:12;;;;;;;6.75;2.53;;;;;;;;;;5080864;28;20064;-67
2023/04/26 04:42:39;;;;;;;7.32;2.35;;;;;;;;;;5048885;28;20083;-69
2023/04/26 04:45:08;;;;;;;5.65;2.50;;;;;;;;;;5030320;28;20076;-67
2023/04/26 04:47:36;;;;;;;;;;;;;;;;;;5063010;28;20052;-69
2023/04/26 04:50:08;;;;;;;5.03;2.35;;;;;;;;;;5041475;28;19931;-68
2023/04/26 04:52:35;;;;;;;8.10;2.58;;;;;;;;;;5033774;28;20067;-66
2023/04/26 04:55:03;;;;;;;8.18;2.70;;;;;;;;;;5041860;28;20143;-65
2023/04/26 04:57:32;;;;;;;7.50;2.50;;;;;;;;;;5070410;28;20048;-66
2023/04/26 05:00:05;;;;;;;6.32;2.50;;;;;;;;;;5058014;28;20316;-66
2023/04/26 05:02:34;;;;;;;6.22;2.53;;;;;;;;;;5057635;28;20087;-67
2023/04/26 05:05:03;;;;;;;;;;;;;;;;;;5034239;28;20052;-69
2023/04/26 05:07:34;;;;;;;9.07;2.88;;;;;;;;;;5061747;28;20002;-67
2023/04/26 05:10:00;;;;;;;6.30;2.60;;;;;;;;;;5055429;28;20147;-66
2023/04/26 05:12:29;;;;;;;7.72;2.80;;;;;;;;;;5079410;28;20056;-65
2023/04/26 05:14:55;;;;;;;9.30;3.30;;;;;;;;;;5031137;28;20060;-66
2023/04/26 05:17:22;;;;;;;9.45;3.15;;;;;;;;;;5068690;28;20483;-67
2023/04/26 05:19:48;;;;;;;12.70;2.97;;;;;;;;;;5055357;28;20066;-66
2023/04/26 05:22:17;;;;;;;7.43;3.20;;;;;;;;;;5061835;28;20052;-67
2023/04/26 05:24:52;;;;;;;8.85;3.53;;;;;;;;;;5016536;28;20087;-66
2023/04/26 05:27:18;;;;;;;9.80;3.80;;;;;;;;;;5061408;28;20052;-67
2023/04/26 05:29:48;;;;;;;9.02;3.72;;;;;;;;;;5070619;28;20178;-66
2023/04/26 05:32:14;;;;;;;10.93;3.55;;;;;;;;;;5059044;28;20502;-65
2023/04/26 05:34:43;;;;;;;7.93;3.72;;;;;;;;;;5049438;28;20070;-66
2023/04/26 05:37:10;;;;;;;8.52;3.33;;;;;;;;;;5077298;28;20153;-65
2023/04/26 05:39:36;;;;;;;6.88;3.33;;;;;;;;;;5048589;28;20162;-66
2023/04/26 05:42:07;;;;;;;8.40;3.22;;;;;;;;;;5036827;28;20147;-66
2023/04/26 05:44:39;;;;;;;8.85;3.38;;;;;;;;;;5007686;28;20057;-66
2023/04/26 05:47:14;;;;;;;7.53;3.08;;;;;;;;;;5050036;28;20049;-66
2023/04/26 05:49:41;;;;;;;8.90;3.40;;;;;;;;;;5020376;28;20144;-67
2023/04/26 05:52:09;;;;;;;7.90;3.40;;;;;;;;;;5037085;28;20079;-67
2023/04/26 05:54:36;;;;;;;7.53;3.20;;;;;;;;;;5029636;28;20118;-66
2023/04/26 05:57:07;;;;;;;8.90;3.22;;;;;;;;;;5035587;28;20059;-65
2023/04/26 05:59:35;;;;;;;9.13;3.13;;;;;;;;;;5037225;28;20072;-66
2023/04/26 06:02:03;;;;;;;7.75;3.08;;;;;;;;;;5035625;28;20057;-67
2023/04/26 06:04:31;;;;;;;13.20;3.83;;;;;;;;;;5023492;28;20053;-66
2023/04/26 06:07:03;;;;;;;10.18;3.03;;;;;;;;;;5012240;28;20053;-65
2023/04/26 06:09:31;;;;;;;7.63;3.33;;;;;;;;;;5028493;28;20066;-66
2023/04/26 06:11:57;;;;;;;8.00;3.17;;;;;;;;;;5022502;28;20049;-66
2023/04/26 06:14:28;;;;;;;6.78;2.92;;;;;;;;;;5008532;28;20065;-66
2023/04/26 06:16:57;;;;;;;7.30;3.13;;;;;;;;;;5032630;28;20069;-66
2023/04/26 06:19:24;;;;;;;7.55;3.17;;;;;;;;;;5035525;28;20052;-68
2023/04/26 06:21:55;;;;;;;7.65;3.05;;;;;;;;;;5050103;28;20114;-69
2023/04/26 06:24:24;;;;;;;8.75;2.90;;;;;;;;;;5018467;28;20057;-68
2023/04/26 06:26:50;;;;;;;;;;;;;;;;;;5013356;28;20056;-69
2023/04/26 06:29:18;;;;;;;8.02;2.80;;;;;;;;;;5042162;28;20015;-66
2023/04/26 06:31:45;;;;;;;8.35;3.25;;;;;;;;;;5035605;28;20130;-66
2023/04/26 06:34:17;;;;;;;6.10;2.67;;;;;;;;;;5036109;28;20061;-66
2023/04/26 06:36:43;;;;;;;7.80;2.95;;;;;;;;;;5026267;28;20114;-65
2023/04/26 06:39:12;;;;;;;8.25;3.20;;;;;;;;;;5022759;28;20113;-66
2023/04/26 06:41:42;;;;;;;7.72;3.55;;;;;;;;;;5055398;28;20143;-66
2023/04/26 06:44:09;;;;;;;8.25;2.75;;;;;;;;;;5079483;28;20052;-66
2023/04/26 06:46:36;;;;;;;7.93;2.72;;;;;;;;;;5048274;28;20065;-65
2023/04/26 06:49:05;;;;;;;7.47;2.80;;;;;;;;;;5052736;28;20151;-64
2023/04/26 06:51:31;;;;;;;7.87;3.13;;;;;;;;;;5052626;28;20048;-66
2023/04/26 06:54:00;;;;;;;9.38;2.97;;;;;;;;;;5051864;28;20060;-67
2023/04/26 06:56:26;;;;;;;;;;;;;;;;;;5049506;28;20155;-65
2023/04/26 06:59:00;;;;;;;6.95;2.28;;;;;;;;;;5055307;28;19989;-65
2023/04/26 07:01:27;;;;;;;8.95;2.85;;;;;;;;;;5068628;28;20067;-66
2023/04/26 07:03:56;;;;;;;6.72;2.72;;;;;;;;;;5073013;28;20182;-67
2023/04/26 07:06:26;;;;;;;6.22;2.63;;;;;;;;;;5041946;28;20114;-67
2023/04/26 07:08:53;;;;;;;7.68;3.10;;;;;;;;;;5054468;28;21732;-66
2023/04/26 07:11:22;;;;;;;9.48;2.67;;;;;;;;;;5076316;28;20044;-66
2023/04/26 07:13:49;;;;;;;8.75;3.10;;;;;;;;;;5045874;28;20096;-66
2023/04/26 07:16:16;;;;;;;9.55;2.75;;;;;;;;;;5037737;28;20056;-65
2023/04/26 07:18:42;;;;;;;7.85;2.72;;;;;;;;;;5046865;28;20054;-66
2023/04/26 07:21:09;;;;;;;11.35;2.75;;;;;;;;;;5077218;28;20134;-66
2023/04/26 07:23:37;;;;;;;8.68;3.08;;;;;;;;;;5070132;28;20427;-66
2023/04/26 07:26:04;;;;;;;7.63;2.88;;;;;;;;;;5056456;28;20524;-67
2023/04/26 07:28:32;;;;;;;8.07;2.60;;;;;;;;;;5055313;28;20147;-68
2023/04/26 07:31:00;;;;;;;5.65;2.80;;;;;;;;;;5051514;28;20131;-67
2023/04/26 07:33:28;;;;;;;6.15;2.20;;;;;;;;;;5054753;28;20084;-67
2023/04/26 07:35:55;;;;;;;6.82;2.30;;;;;;;;;;5019792;28;20052;-67
2023/04/26 07:38:22;;;;;;;6.22;2.28;;;;;;;;;;5056096;28;20058;-67
2023/04/26 07:40:51;;;;;;;6.97;2.42;;;;;;;;;;5046029;28;20328;-65
2023/04/26 07:43:17;;;;;;;6.68;2.72;;;;;;;;;;5037562;28;20052;-67
2023/04/26 07:45:44;;;;;;;5.63;2.40;;;;;;;;;;5040729;28;20128;-65
2023/04/26 07:48:10;;;;;;;5.53;2.40;;;;;;;;;;5042279;28;20059;-67
2023/04/26 07:50:45;;;;;;;4.95;2.00;;;;;;;;;;5042074;28;20150;-66
2023/04/26 07:53:11;;;;;;;5.80;1.92;;;;;;;;;;5075323;28;20052;-67
2023/04/26 07:55:39;;;;;;;4.28;1.90;;;;;;;;;;5038982;28;20056;-69
2023/04/26 07:58:11;;;;;;;8.40;2.23;;;;;;;;;;5059527;28;20060;-68
2023/04/26 08:00:39;;;;;;;7.20;2.15;;;;;;;;;;5057284;28;20139;-66
2023/04/26 08:03:09;;;;;;;4.72;2.05;;;;;;;;;;5059139;28;20056;-68
2023/04/26 08:05:39;;;;;;;7.30;2.30;;;;;;;;;;5009567;28;20064;-67
2023/04/26 08:08:08;;;;;;;4.15;1.80;;;;;;;;;;5025337;28;20271;-67
2023/04/26 08:10:35;;;;;;;5.97;2.22;;;;;;;;;;5038361;28;20067;-66
2023/04/26 08:13:12;;;;;;;6.85;2.50;;;;;;;;;;5078625;28;20064;-66
2023/04/26 08:15:40;;;;;;;3.55;1.98;;;;;;;;;;5055979;28;20059;-67
2023/04/26 08:18:08;;;;;;;6.22;2.42;;;;;;;;;;5061607;28;20132;-68
2023/04/26 08:20:35;;;;;;;8.15;2.33;;;;;;;;;;5056861;28;20053;-66
2023/04/26 08:23:01;;;;;;;8.13;2.05;;;;;;;;;;5059098;28;20048;-68
2023/04/26 08:25:28;;;;;;;6.28;2.38;;;;;;;;;;5037183;28;20064;-67
2023/04/26 08:27:54;;;;;;;3.70;1.83;;;;;;;;;;5059030;28;20079;-67
2023/04/26 08:30:21;;;;;;;4.13;1.88;;;;;;;;;;5079833;28;20052;-70
2023/04/26 08:32:50;;;;;;;6.47;2.03;;;;;;;;;;5052913;28;20056;-69
2023/04/26 08:35:16;;;;;;;4.47;2.15;;;;;;;;;;5050830;28;20097;-68
2023/04/26 08:37:44;;;;;;;7.40;2.30;;;;;;;;;;5076264;28;20076;-70
2023/04/26 08:40:14;;;;;;;4.60;1.67;;;;;;;;;;5061942;28;20060;-68
2023/04/26 08:42:42;;;;;;;4.28;1.85;;;;;;;;;;5047910;28;20048;-69
2023/04/26 08:45:12;;;;;;;3.33;1.52;;;;;;;;;;5019725;28;20045;-70
2023/04/26 08:47:43;;;;;;;7.80;2.15;;;;;;;;;;5060556;28;20053;-69
2023/04/26 08:50:13;;;;;;;6.55;1.73;;;;;;;;;;5041273;28;20056;-68
2023/04/26 08:52:41;;;;;;;5.35;2.13;;;;;;;;;;5062168;28;20125;-71
2023/04/26 08:58:03;;;;;;;6.75;2.00;;;;;;;;;;5076476;28;20059;-71
2023/04/26 09:00:30;;;;;;;5.88;1.85;;;;;;;;;;5077817;28;20052;-70
2023/04/26 09:02:56;;;;;;;5.45;1.80;;;;;;;;;;5054990;28;21404;-68
2023/04/26 09:05:26;;;;;;;4.07;1.63;;;;;;;;;;5044025;28;20056;-66
2023/04/26 09:07:56;;;;;;;5.47;1.60;;;;;;;;;;5060053;28;20055;-67
2023/04/26 09:10:24;;;;;;;4.30;1.77;;;;;;;;;;5054502;28;20143;-66
2023/04/26 09:12:51;;;;;;;7.60;2.00;;;;;;;;;;5064215;28;20104;-66
2023/04/26 09:15:18;;;;;;;5.65;1.80;;;;;;;;;;5040599;28;20105;-66
2023/04/26 09:17:48;;;;;;;4.43;2.00;;;;;;;;;;5059341;28;20044;-68
2023/04/26 09:20:19;;;;;;;4.35;1.90;;;;;;;;;;5063014;28;20059;-66
2023/04/26 09:22:50;;;;;;;3.58;1.60;;;;;;;;;;5069699;28;20056;-66
2023/04/26 09:25:17;;;;;;;7.25;1.70;;;;;;;;;;5056217;28;20060;-66
2023/04/26 09:27:44;;;;;;;4.20;1.90;;;;;;;;;;5062217;28;20056;-66
2023/04/26 09:30:14;;;;;;;2.80;1.40;;;;;;;;;;5076037;28;20161;-67
2023/04/26 09:32:45;;;;;;;5.63;1.85;;;;;;;;;;5054610;28;20044;-65
2023/04/26 09:35:30;;;;;;;3.88;1.67;;;;;;;;;;5052690;28;20115;-67
2023/04/26 09:37:59;;;;;;;3.75;1.52;;;;;;;;;;5078791;28;20063;-68
2023/04/26 09:40:25;;;;;;;;;;;;;;;;;;5039710;28;20049;-67
2023/04/26 09:42:58;;;;;;;2.85;1.38;;;;;;;;;;5033072;28;19924;-69
2023/04/26 09:45:28;;;;;;;3.50;1.52;;;;;;;;;;5055740;28;20063;-71
2023/04/26 09:47:56;;;;;;;4.72;1.27;;;;;;;;;;5077163;28;20083;-67
2023/04/26 09:50:32;;;;;;;3.38;1.60;;;;;;;;;;5075188;28;20107;-68
2023/04/26 09:52:59;;;;;;;4.93;1.50;;;;;;;;;;5057955;28;20051;-66
2023/04/26 09:55:27;;;;;;;4.43;1.70;;;;;;;;;;5020651;28;20070;-67
2023/04/26 09:57:59;;;;;;;6.10;1.67;;;;;;;;;;5071406;28;20044;-68
2023/04/26 10:03:07;;;;;;;3.38;1.40;;;;;;;;;;5059743;28;20077;-66
2023/04/26 10:05:34;;;;;;;5.85;1.60;;;;;;;;;;5037524;28;20052;-67
2023/04/26 10:08:03;;;;;;;4.65;1.40;;;;;;;;;;5060642;28;20091;-66
2023/04/26 10:10:33;;;;;;;2.60;1.27;;;;;;;;;;5053136;28;20152;-66
2023/04/26 10:13:00;;;;;;;3.47;1.52;;;;;;;;;;5067510;28;20052;-67
2023/04/26 10:15:27;;;;;;;2.85;1.48;;;;;;;;;;5073505;28;20063;-66
2023/04/26 10:17:56;;;;;;;3.15;1.33;;;;;;;;;;5060951;28;20079;-68
2023/04/26 10:20:22;;;;;;;;;;;;;;;;;;5075383;28;20063;-71
2023/04/26 10:22:51;;;;;;;2.58;1.30;;;;;;;;;;5050597;28;20011;-67
2023/04/26 10:25:34;;;;;;;2.38;1.30;;;;;;;;;;5058363;28;20048;-67
2023/04/26 10:28:02;;;;;;;3.72;1.50;;;;;;;;;;5076969;28;20143;-66
2023/04/26 10:30:29;;;;;;;4.75;1.42;;;;;;;;;;5079113;28;20050;-66
2023/04/26 10:33:17;;;;;;;3.88;1.38;;;;;;;;;;5049348;28;20072;-67
2023/04/26 10:36:00;;;;;;;4.30;1.40;;;;;;;;;;5034102;28;20053;-67
2023/04/26 10:38:26;;;;;;;3.42;1.48;;;;;;;;;;5077333;28;20080;-68
2023/04/26 10:41:17;;;;;;;3.53;1.35;;;;;;;;;;5065413;28;20047;-68
2023/04/26 10:43:43;;;;;;;2.90;1.20;;;;;;;;;;5039608;28;20056;-70
2023/04/26 10:46:25;;;;;;;3.08;1.25;;;;;;;;;;5036483;28;20163;-69
2023/04/26 10:48:51;;;;;;;5.47;1.20;;;;;;;;;;5068133;28;20216;-70
2023/04/26 10:51:19;;;;;;;2.28;1.10;;;;;;;;;;5066460;28;20056;-69
2023/04/26 10:54:01;;;;;;;1.63;1.08;;;;;;;;;;5055504;28;20061;-69
2023/04/26 10:56:46;;;;;;;3.78;1.20;;;;;;;;;;5062431;28;20058;-70
2023/04/26 10:59:19;;;;;;;2.70;1.20;;;;;;;;;;5054406;28;20151;-69
2023/04/26 11:01:45;;;;;;;3.22;1.13;;;;;;;;;;5049887;28;20064;-68
2023/04/26 11:04:12;;;;;;;7.15;1.65;;;;;;;;;;5063162;28;20107;-69
2023/04/26 11:06:52;;;;;;;4.57;1.25;;;;;;;;;;5035654;28;20254;-69
2023/04/26 11:09:36;;;;;;;5.35;1.48;;;;;;;;;;5076815;28;20077;-70
2023/04/26 11:12:07;;;;;;;2.50;1.20;;;;;;;;;;5056178;28;20119;-69
2023/04/26 11:14:37;;;;;;;2.75;1.20;;;;;;;;;;5037215;28;20083;-70
2023/04/26 11:17:07;;;;;;;2.83;1.10;;;;;;;;;;4978397;28;20060;-70
2023/04/26 11:19:35;;;;;;;;;;;;;;;;;;5075983;28;20060;-70
2023/04/26 11:22:02;;;;;;;2.83;1.20;;;;;;;;;;5059222;28;19959;-70
2023/04/26 11:24:30;;;;;;;1.98;1.23;;;;;;;;;;5073304;28;20310;-68
2023/04/26 11:26:57;;;;;;;3.83;1.50;;;;;;;;;;5046750;28;20084;-71
2023/04/26 11:29:25;;;;;;;8.52;1.70;;;;;;;;;;5049423;28;20110;-67
2023/04/26 11:31:54;;;;;;;2.63;1.15;;;;;;;;;;5057701;28;20077;-67
2023/04/26 11:34:23;;;;;;;1.58;1.05;;;;;;;;;;5074747;28;20130;-69
2023/04/26 11:36:50;;;;;;;3.67;1.42;;;;;;;;;;5010534;28;20320;-69
2023/04/26 11:39:19;;;;;;;4.63;1.40;;;;;;;;;;5058237;28;20105;-67
2023/04/26 11:41:47;;;;;;;2.78;1.50;;;;;;;;;;5056443;28;20051;-69
2023/04/26 11:44:20;;;;;;;1.63;1.05;;;;;;;;;;5054699;28;20056;-68
2023/04/26 11:46:49;;;;;;;3.92;1.35;;;;;;;;;;5041788;28;20076;-69
2023/04/26 11:49:20;;;;;;;5.20;1.60;;;;;;;;;;5055701;28;20044;-70
2023/04/26 11:51:47;;;;;;;4.97;1.35;;;;;;;;;;5059663;28;20079;-71
2023/04/26 11:54:26;;;;;;;3.58;1.50;;;;;;;;;;5055221;28;20353;-69
2023/04/26 11:56:53;;;;;;;2.65;1.20;;;;;;;;;;5046249;28;20207;-68
2023/04/26 11:59:23;;;;;;;3.05;1.17;;;;;;;;;;5047695;28;20048;-68
2023/04/26 12:01:50;;;;;;;5.43;1.20;;;;;;;;;;5075151;28;20058;-69
2023/04/26 12:04:26;;;;;;;2.47;1.30;;;;;;;;;;5054630;28;20135;-69
2023/04/26 12:06:56;;;;;;;2.50;1.33;;;;;;;;;;5027539;28;20425;-70
2023/04/26 12:09:25;;;;;;;3.10;1.30;;;;;;;;;;5046963;28;20160;-69
2023/04/26 12:11:58;;;;;;;3.85;1.55;;;;;;;;;;5060568;28;20081;-68
2023/04/26 12:14:30;;;;;;;5.53;1.48;;;;;;;;;;5074962;28;20101;-68
2023/04/26 12:17:00;;;;;;;1.90;1.15;;;;;;;;;;5017860;28;20052;-69
2023/04/26 12:19:28;;;;;;;2.70;1.25;;;;;;;;;;5076923;28;20064;-69
2023/04/26 12:21:54;;;;;;;2.90;1.43;;;;;;;;;;5056376;28;20055;-69
2023/04/26 12:24:22;;;;;;;4.20;1.42;;;;;;;;;;5063134;28;20303;-69
2023/04/26 12:26:49;;;;;;;3.00;1.40;;;;;;;;;;5031815;28;20224;-68
2023/04/26 12:29:17;;;;;;;2.97;1.45;;;;;;;;;;5058225;28;20157;-68
2023/04/26 12:31:45;;;;;;;3.28;1.40;;;;;;;;;;5059862;28;20060;-68
2023/04/26 12:34:15;;;;;;;2.33;1.30;;;;;;;;;;5055521;28;20104;-69
2023/04/26 12:36:44;;;;;;;2.60;1.42;;;;;;;;;;5022759;28;20057;-69
2023/04/26 12:39:12;;;;;;;;;;;;;;;;;;5032977;28;20163;-68
2023/04/26 12:41:38;;;;;;;2.80;1.13;;;;;;;;;;5043656;28;19927;-69
2023/04/26 12:44:07;;;;;;;5.10;1.50;;;;;;;;;;5057276;28;20048;-69
2023/04/26 12:46:34;;;;;;;4.05;1.67;;;;;;;;;;5028620;28;20048;-68
2023/04/26 12:49:03;;;;;;;4.68;1.80;;;;;;;;;;5056560;28;20128;-66
2023/04/26 12:51:30;;;;;;;4.65;1.50;;;;;;;;;;5056518;28;20052;-69
2023/04/26 12:53:58;;;;;;;3.15;1.55;;;;;;;;;;5061655;28;20063;-70
2023/04/26 12:56:25;;;;;;;5.43;1.60;;;;;;;;;;5075912;28;20122;-70
2023/04/26 12:58:51;;;;;;;4.57;1.65;;;;;;;;;;5038366;28;20072;-70
2023/04/26 13:01:20;;;;;;;4.00;1.63;;;;;;;;;;5040338;28;20056;-70
2023/04/26 13:03:46;;;;;;;5.82;1.50;;;;;;;;;;5077963;28;20082;-68
2023/04/26 13:06:13;;;;;;;2.92;1.35;;;;;;;;;;5063676;28;20056;-70
2023/04/26 13:08:40;;;;;;;3.90;1.65;;;;;;;;;;5037099;28;20157;-68
2023/04/26 13:11:09;;;;;;;4.20;1.60;;;;;;;;;;5061861;28;20105;-70
2023/04/26 13:13:35;;;;;;;4.10;1.55;;;;;;;;;;5056642;28;20084;-70
2023/04/26 13:16:02;;;;;;;3.05;1.40;;;;;;;;;;5047932;28;20067;-68
2023/04/26 13:18:35;;;;;;;3.80;1.52;;;;;;;;;;5062191;28;20182;-68
2023/04/26 13:21:03;;;;;;;3.38;1.33;;;;;;;;;;5041154;28;20053;-70
2023/04/26 13:23:30;;;;;;;5.18;1.67;;;;;;;;;;5069859;28;20074;-70
2023/04/26 13:26:00;;;;;;;4.93;1.52;;;;;;;;;;5040205;28;20150;-69
2023/04/26 13:28:33;;;;;;;4.78;1.70;;;;;;;;;;5065956;28;20091;-69
2023/04/26 13:31:00;;;;;;;3.90;1.52;;;;;;;;;;5056892;28;20950;-71
2023/04/26 13:33:26;;;;;;;5.15;1.75;;;;;;;;;;5067643;28;20103;-70
2023/04/26 13:35:53;;;;;;;4.07;1.88;;;;;;;;;;5058259;28;20060;-69
2023/04/26 13:38:19;;;;;;;3.88;1.75;;;;;;;;;;5067397;28;20059;-69
2023/04/26 13:40:46;;;;;;;2.70;1.50;;;;;;;;;;5029267;28;20148;-69
2023/04/26 13:43:13;;;;;;;4.50;1.73;;;;;;;;;;5018140;28;21144;-70
2023/04/26 13:45:43;;;;;;;4.80;1.60;;;;;;;;;;5028024;28;20060;-69
2023/04/26 13:48:10;;;;;;;4.03;1.52;;;;;;;;;;5037562;28;20128;-69
2023/04/26 13:50:39;;;;;;;2.97;1.52;;;;;;;;;;5035786;28;20061;-70
2023/04/26 13:53:08;;;;;;;3.97;1.90;;;;;;;;;;5039337;28;22016;-70
2023/04/26 13:55:36;;;;;;;2.20;1.27;;;;;;;;;;5023080;28;20060;-69
2023/04/26 13:58:06;;;;;;;3.67;1.45;;;;;;;;;;5021817;28;20088;-70
2023/04/26 14:00:32;;;;;;;3.00;1.40;;;;;;;;;;5031697;28;20148;-70
2023/04/26 14:03:00;;;;;;;2.67;1.45;;;;;;;;;;5032707;28;20176;-70
2023/04/26 14:05:32;;;;;;;7.55;1.85;;;;;;;;;;5040456;28;20076;-69
2023/04/26 14:08:02;;;;;;;3.10;1.45;;;;;;;;;;5018097;28;20049;-69
2023/04/26 14:10:31;;;;;;;3.72;1.73;;;;;;;;;;5028382;28;20056;-69
2023/04/26 14:12:57;;;;;;;2.95;1.45;;;;;;;;;;5035991;28;22007;-69
2023/04/26 14:15:24;;;;;;;3.53;1.73;;;;;;;;;;5030022;28;20147;-70
2023/04/26 14:17:58;;;;;;;4.85;1.70;;;;;;;;;;5000643;28;20057;-69
2023/04/26 14:20:30;;;;;;;2.65;1.27;;;;;;;;;;5036928;28;20056;-69
2023/04/26 14:22:56;;;;;;;3.35;1.52;;;;;;;;;;5028554;28;20130;-69
2023/04/26 14:25:23;;;;;;;2.22;1.40;;;;;;;;;;5037027;28;20126;-69
2023/04/26 14:27:49;;;;;;;5.88;1.60;;;;;;;;;;5035444;28;20382;-69
2023/04/26 14:30:18;;;;;;;3.92;1.50;;;;;;;;;;5033454;28;20150;-69
2023/04/26 14:32:45;;;;;;;2.60;1.20;;;;;;;;;;5030989;28;20283;-67
2023/04/26 14:35:14;;;;;;;2.53;1.30;;;;;;;;;;5037620;28;20048;-68
2023/04/26 14:37:57;;;;;;;2.67;1.35;;;;;;;;;;5033789;28;20072;-70
2023/04/26 14:40:24;;;;;;;4.57;1.50;;;;;;;;;;5045139;28;20056;-70
2023/04/26 14:42:50;;;;;;;3.88;1.40;;;;;;;;;;5049204;28;20056;-69
2023/04/26 14:45:17;;;;;;;2.42;1.30;;;;;;;;;;5049301;28;20062;-70
2023/04/26 14:47:46;;;;;;;3.30;1.42;;;;;;;;;;5028782;28;20123;-69
2023/04/26 14:50:13;;;;;;;2.22;1.40;;;;;;;;;;5073729;28;20119;-69
2023/04/26 14:52:40;;;;;;;3.90;1.40;;;;;;;;;;5047565;28;20122;-69
2023/04/26 14:55:14;;;;;;;3.55;1.50;;;;;;;;;;5056940;28;20048;-69
2023/04/26 14:57:42;;;;;;;3.08;1.45;;;;;;;;;;5051337;28;20161;-69